createdAt,value
2023-04-10T00:01:10.739Z,99.90
2023-04-10T00:04:14.301Z,99.90
2023-04-10T00:07:17.546Z,99.90
2023-04-10T00:10:20.706Z,99.90
2023-04-10T00:13:24.017Z,99.90
2023-04-10T00:16:28.548Z,99.90
2023-04-10T00:19:32.094Z,99.90
2023-04-10T00:22:35.434Z,99.90
2023-04-10T00:25:38.516Z,99.90
2023-04-10T00:28:41.577Z,99.90
2023-04-10T00:31:46.055Z,99.90
2023-04-10T00:34:49.198Z,99.90
2023-04-10T00:37:54.601Z,99.90
2023-04-10T00:40:57.654Z,99.90
2023-04-10T00:44:00.924Z,99.90
2023-04-10T00:47:05.574Z,99.90
2023-04-10T00:50:09.267Z,99.90
2023-04-10T00:53:12.367Z,99.90
2023-04-10T00:56:16.236Z,99.90
2023-04-10T00:59:19.520Z,99.90
2023-04-10T01:02:24.137Z,99.90
2023-04-10T01:05:30.334Z,99.90
2023-04-10T01:08:41.264Z,99.90
2023-04-10T01:11:52.530Z,99.90
2023-04-10T01:15:03.436Z,99.90
2023-04-10T01:18:17.757Z,99.90
2023-04-10T01:21:24.104Z,99.90
2023-04-10T01:24:44.018Z,99.90
2023-04-10T01:28:02.000Z,99.90
2023-04-10T01:31:09.352Z,99.90
2023-04-10T01:34:18.519Z,99.90
2023-04-10T01:37:24.672Z,99.90
2023-04-10T01:40:28.433Z,99.90
2023-04-10T01:43:33.206Z,99.90
2023-04-10T01:46:39.868Z,99.90
2023-04-10T01:49:44.998Z,99.90
2023-04-10T01:52:48.994Z,99.90
2023-04-10T01:55:53.738Z,99.90
2023-04-10T01:58:57.718Z,99.90
2023-04-10T02:02:02.621Z,99.90
2023-04-10T02:05:06.392Z,99.90
2023-04-10T02:08:16.333Z,99.90
2023-04-10T02:11:38.078Z,99.90
2023-04-10T02:14:46.177Z,99.90
2023-04-10T02:17:51.747Z,99.90
2023-04-10T02:20:58.985Z,99.90
2023-04-10T02:24:02.622Z,99.90
2023-04-10T02:27:05.920Z,99.90
2023-04-10T02:30:09.918Z,99.90
2023-04-10T02:33:14.308Z,99.90
2023-04-10T02:36:17.340Z,99.90
2023-04-10T02:39:20.458Z,99.90
2023-04-10T02:42:23.532Z,99.90
2023-04-10T02:45:26.678Z,99.90
2023-04-10T02:48:31.113Z,99.90
2023-04-10T02:51:36.521Z,99.90
2023-04-10T02:54:39.602Z,99.90
2023-04-10T02:57:43.049Z,99.90
2023-04-10T03:00:49.775Z,99.90
2023-04-10T03:03:54.616Z,99.90
2023-04-10T03:06:59.644Z,99.90
2023-04-10T03:10:02.837Z,99.90
2023-04-10T03:13:05.911Z,99.90
2023-04-10T03:16:09.311Z,99.90
2023-04-10T03:19:13.789Z,99.90
2023-04-10T03:22:16.844Z,99.90
2023-04-10T03:25:19.974Z,99.90
2023-04-10T03:28:23.216Z,99.90
2023-04-10T03:31:26.401Z,99.90
2023-04-10T03:34:30.855Z,99.90
2023-04-10T03:37:33.990Z,99.90
2023-04-10T03:40:37.762Z,99.90
2023-04-10T03:43:41.267Z,99.90
2023-04-10T03:46:44.508Z,99.90
2023-04-10T03:49:48.994Z,99.90
2023-04-10T03:52:52.630Z,99.90
2023-04-10T03:55:55.795Z,99.90
2023-04-10T03:58:58.897Z,99.90
2023-04-10T04:02:02.077Z,99.90
2023-04-10T04:05:07.304Z,99.90
2023-04-10T04:08:10.508Z,99.90
2023-04-10T04:11:13.613Z,99.90
2023-04-10T04:14:16.692Z,99.90
2023-04-10T04:17:19.899Z,99.90
2023-04-10T04:20:24.520Z,99.90
2023-04-10T04:23:27.626Z,99.90
2023-04-10T04:26:31.682Z,99.90
2023-04-10T04:29:34.828Z,99.90
2023-04-10T04:32:37.979Z,99.90
2023-04-10T04:35:42.459Z,99.90
2023-04-10T04:38:45.534Z,99.90
2023-04-10T04:41:48.585Z,99.90
2023-04-10T04:44:51.843Z,99.90
2023-04-10T04:47:55.010Z,99.90
2023-04-10T04:50:59.466Z,99.90
2023-04-10T04:54:02.501Z,99.90
2023-04-10T04:57:05.679Z,99.90
2023-04-10T05:00:09.945Z,99.90
2023-04-10T05:03:13.119Z,99.90
2023-04-10T05:06:18.750Z,99.90
2023-04-10T05:09:21.842Z,99.90
2023-04-10T05:12:24.961Z,99.90
2023-04-10T05:15:28.717Z,99.90
2023-04-10T05:18:31.880Z,99.90
2023-04-10T05:21:37.637Z,99.90
2023-04-10T05:24:40.804Z,99.90
2023-04-10T05:27:43.897Z,99.90
2023-04-10T05:30:46.946Z,99.90
2023-04-10T05:33:50.049Z,99.90
2023-04-10T05:36:56.152Z,99.90
2023-04-10T05:40:00.901Z,99.90
2023-04-10T05:43:04.178Z,99.90
2023-04-10T05:46:07.997Z,99.90
2023-04-10T05:49:11.166Z,99.90
2023-04-10T05:52:15.581Z,99.90
2023-04-10T05:55:18.711Z,99.90
2023-04-10T05:58:21.815Z,99.90
2023-04-10T06:01:24.969Z,99.90
2023-04-10T06:04:28.288Z,99.90
2023-04-10T06:07:33.494Z,99.90
2023-04-10T06:10:36.604Z,99.90
2023-04-10T06:13:39.701Z,99.90
2023-04-10T06:16:43.292Z,99.90
2023-04-10T06:19:46.431Z,97.50
2023-04-10T06:22:50.833Z,95.00
2023-04-10T06:25:53.945Z,93.10
2023-04-10T06:28:57.073Z,90.80
2023-04-10T06:32:00.718Z,88.80
2023-04-10T06:35:03.840Z,84.10
2023-04-10T06:38:08.995Z,78.90
2023-04-10T06:41:12.114Z,72.80
2023-04-10T06:44:15.159Z,69.20
2023-04-10T06:47:18.409Z,64.20
2023-04-10T06:50:21.597Z,58.70
2023-04-10T06:53:26.214Z,55.40
2023-04-10T06:56:29.323Z,52.00
2023-04-10T06:59:34.846Z,51.10
2023-04-10T07:02:37.982Z,50.00
2023-04-10T07:05:42.356Z,46.40
2023-04-10T07:08:46.972Z,44.00
2023-04-10T07:11:50.010Z,42.50
2023-04-10T07:14:56.087Z,41.20
2023-04-10T07:17:59.208Z,40.20
2023-04-10T07:21:02.533Z,39.20
2023-04-10T07:24:07.206Z,37.10
2023-04-10T07:27:10.249Z,34.60
2023-04-10T07:30:13.788Z,32.50
2023-04-10T07:33:17.333Z,30.10
2023-04-10T07:36:20.530Z,29.10
2023-04-10T07:39:24.983Z,28.20
2023-04-10T07:42:28.097Z,26.70
2023-04-10T07:45:31.282Z,26.40
2023-04-10T07:48:34.439Z,25.50
2023-04-10T07:51:37.539Z,23.90
2023-04-10T07:54:41.990Z,23.10
2023-04-10T07:57:45.158Z,22.30
2023-04-10T08:00:48.241Z,21.20
2023-04-10T08:03:52.178Z,20.10
2023-04-10T08:06:55.394Z,19.60
2023-04-10T08:09:59.862Z,18.80
2023-04-10T08:13:02.976Z,18.00
2023-04-10T08:16:06.694Z,17.90
2023-04-10T08:19:10.181Z,17.20
2023-04-10T08:22:13.279Z,16.70
2023-04-10T08:25:17.809Z,16.10
2023-04-10T08:28:21.399Z,15.50
2023-04-10T08:31:25.858Z,14.20
2023-04-10T08:34:29.180Z,14.70
2023-04-10T08:37:32.274Z,13.80
2023-04-10T08:40:39.779Z,13.60
2023-04-10T08:43:43.589Z,12.40
2023-04-10T08:46:46.877Z,12.90
2023-04-10T08:49:55.301Z,12.60
2023-04-10T08:53:06.250Z,11.90
2023-04-10T08:56:14.854Z,12.00
2023-04-10T08:59:18.278Z,12.30
2023-04-10T09:02:23.654Z,12.20
2023-04-10T09:05:28.687Z,11.80
2023-04-10T09:08:31.819Z,12.20
2023-04-10T09:12:01.500Z,12.20
2023-04-10T09:15:05.508Z,11.50
2023-04-10T09:18:08.705Z,10.50
2023-04-10T09:21:13.322Z,10.40
2023-04-10T09:24:16.413Z,10.50
2023-04-10T09:27:35.358Z,10.20
2023-04-10T09:30:41.409Z,10.10
2023-04-10T09:33:44.478Z,10.40
2023-04-10T09:36:56.086Z,10.70
2023-04-10T09:39:59.312Z,10.50
2023-04-10T09:43:18.841Z,11.70
2023-04-10T09:46:28.787Z,12.80
2023-04-10T09:49:47.296Z,14.10
2023-04-10T09:52:58.990Z,14.50
2023-04-10T09:56:02.501Z,14.90
2023-04-10T09:59:08.608Z,15.30
2023-04-10T10:02:14.503Z,16.60
2023-04-10T10:05:17.953Z,18.50
2023-04-10T10:08:21.757Z,19.20
2023-04-10T10:11:27.168Z,20.00
2023-04-10T10:14:33.343Z,22.90
2023-04-10T10:17:44.090Z,24.40
2023-04-10T10:20:47.784Z,24.70
2023-04-10T10:23:54.158Z,26.20
2023-04-10T10:26:58.365Z,27.30
2023-04-10T10:30:11.866Z,27.80
2023-04-10T10:33:20.032Z,27.30
2023-04-10T10:36:24.857Z,26.70
2023-04-10T10:39:35.689Z,27.00
2023-04-10T10:42:46.865Z,27.00
2023-04-10T10:45:57.292Z,27.20
2023-04-10T10:49:02.251Z,26.90
2023-04-10T10:52:05.592Z,26.10
2023-04-10T10:55:38.476Z,26.70
2023-04-10T10:58:48.716Z,27.00
2023-04-10T11:02:16.778Z,27.10
2023-04-10T11:05:50.953Z,27.70
2023-04-10T11:08:54.583Z,27.90
2023-04-10T11:11:59.931Z,28.40
2023-04-10T11:15:05.012Z,29.10
2023-04-10T11:18:09.514Z,30.00
2023-04-10T11:21:14.093Z,30.40
2023-04-10T11:24:17.241Z,31.00
2023-04-10T11:27:52.892Z,32.10
2023-04-10T11:30:56.404Z,31.90
2023-04-10T11:34:05.218Z,32.20
2023-04-10T11:37:08.270Z,32.40
2023-04-10T11:40:12.406Z,32.70
2023-04-10T11:43:15.807Z,32.70
2023-04-10T11:46:19.296Z,32.70
2023-04-10T11:49:25.621Z,32.40
2023-04-10T11:52:28.870Z,32.60
2023-04-10T11:55:39.702Z,33.00
2023-04-10T11:58:42.870Z,33.00
2023-04-10T12:01:46.399Z,33.60
2023-04-10T12:04:59.751Z,33.50
2023-04-10T12:08:03.029Z,32.70
2023-04-10T12:11:06.597Z,32.70
2023-04-10T12:14:09.735Z,32.60
2023-04-10T12:17:13.984Z,31.50
2023-04-10T12:20:18.884Z,31.10
2023-04-10T12:23:22.120Z,31.10
2023-04-10T12:26:26.014Z,30.90
2023-04-10T12:29:29.428Z,31.00
2023-04-10T12:32:33.259Z,31.00
2023-04-10T12:35:42.589Z,31.00
2023-04-10T12:38:46.069Z,30.00
2023-04-10T12:41:49.212Z,30.00
2023-04-10T12:44:54.505Z,30.50
2023-04-10T12:47:57.740Z,31.20
2023-04-10T12:51:02.737Z,30.70
2023-04-10T12:54:05.912Z,31.10
2023-04-10T12:57:09.083Z,30.70
2023-04-10T13:00:14.945Z,31.10
2023-04-10T13:03:18.114Z,30.40
2023-04-10T13:06:22.667Z,29.90
2023-04-10T13:09:25.803Z,29.50
2023-04-10T13:12:30.288Z,29.40
2023-04-10T13:15:34.586Z,29.00
2023-04-10T13:18:37.742Z,28.80
2023-04-10T13:21:42.218Z,29.10
2023-04-10T13:24:45.736Z,29.00
2023-04-10T13:27:48.875Z,29.40
2023-04-10T13:30:52.262Z,29.70
2023-04-10T13:33:55.316Z,30.40
2023-04-10T13:36:59.948Z,30.60
2023-04-10T13:40:03.103Z,31.10
2023-04-10T13:43:08.392Z,31.40
2023-04-10T13:46:14.651Z,31.50
2023-04-10T13:49:18.029Z,31.70
2023-04-10T13:52:22.554Z,31.20
2023-04-10T13:55:25.638Z,31.60
2023-04-10T13:58:31.934Z,31.40
2023-04-10T14:01:35.390Z,31.90
2023-04-10T14:04:38.490Z,31.70
2023-04-10T14:07:42.982Z,31.90
2023-04-10T14:10:50.674Z,32.50
2023-04-10T14:13:53.805Z,32.90
2023-04-10T14:16:57.063Z,32.20
2023-04-10T14:20:00.307Z,31.90
2023-04-10T14:23:04.810Z,32.30
2023-04-10T14:26:08.208Z,32.40
2023-04-10T14:29:11.303Z,32.50
2023-04-10T14:32:14.413Z,32.50
2023-04-10T14:35:18.235Z,32.30
2023-04-10T14:38:22.689Z,33.00
2023-04-10T14:41:25.859Z,33.50
2023-04-10T14:44:30.305Z,34.40
2023-04-10T14:47:33.667Z,33.80
2023-04-10T14:50:36.833Z,34.20
2023-04-10T14:53:41.478Z,34.80
2023-04-10T14:56:44.890Z,37.70
2023-04-10T14:59:48.012Z,37.20
2023-04-10T15:02:51.415Z,35.10
2023-04-10T15:06:00.481Z,35.50
2023-04-10T15:09:05.250Z,34.90
2023-04-10T15:12:08.639Z,34.60
2023-04-10T15:15:12.396Z,34.40
2023-04-10T15:18:15.714Z,34.40
2023-04-10T15:21:20.643Z,34.90
2023-04-10T15:24:25.107Z,35.00
2023-04-10T15:27:28.190Z,34.90
2023-04-10T15:30:31.996Z,35.00
2023-04-10T15:33:36.459Z,35.00
2023-04-10T15:36:39.681Z,34.90
2023-04-10T15:39:44.144Z,35.10
2023-04-10T15:42:47.324Z,34.90
2023-04-10T15:45:50.517Z,35.40
2023-04-10T15:48:53.653Z,35.10
2023-04-10T15:51:56.744Z,35.00
2023-04-10T15:55:01.186Z,35.10
2023-04-10T15:58:04.229Z,34.80
2023-04-10T16:01:10.765Z,34.90
2023-04-10T16:04:14.121Z,34.60
2023-04-10T16:07:18.470Z,34.50
2023-04-10T16:10:22.987Z,34.80
2023-04-10T16:13:26.160Z,34.80
2023-04-10T16:16:30.604Z,35.20
2023-04-10T16:19:33.860Z,35.00
2023-04-10T16:22:40.241Z,34.70
2023-04-10T16:25:44.795Z,34.70
2023-04-10T16:28:47.828Z,34.90
2023-04-10T16:31:51.140Z,35.70
2023-04-10T16:34:54.364Z,36.10
2023-04-10T16:37:57.439Z,36.90
2023-04-10T16:41:03.244Z,36.60
2023-04-10T16:44:06.436Z,36.40
2023-04-10T16:47:09.858Z,36.90
2023-04-10T16:50:13.449Z,37.10
2023-04-10T16:53:16.577Z,37.70
2023-04-10T16:56:21.193Z,37.80
2023-04-10T16:59:24.320Z,38.10
2023-04-10T17:02:29.813Z,38.10
2023-04-10T17:05:36.373Z,38.10
2023-04-10T17:08:39.527Z,38.10
2023-04-10T17:11:44.388Z,38.40
2023-04-10T17:14:47.464Z,38.70
2023-04-10T17:17:51.096Z,38.90
2023-04-10T17:20:54.256Z,39.10
2023-04-10T17:23:57.346Z,39.20
2023-04-10T17:27:02.185Z,39.30
2023-04-10T17:30:05.852Z,39.60
2023-04-10T17:33:09.277Z,39.80
2023-04-10T17:36:14.197Z,40.00
2023-04-10T17:39:17.805Z,40.00
2023-04-10T17:42:23.829Z,40.20
2023-04-10T17:45:26.941Z,40.30
2023-04-10T17:48:30.946Z,40.20
2023-04-10T17:51:34.359Z,40.70
2023-04-10T17:54:37.420Z,41.00
2023-04-10T17:57:41.939Z,41.10
2023-04-10T18:00:45.044Z,41.50
2023-04-10T18:03:48.274Z,42.10
2023-04-10T18:06:51.446Z,42.40
2023-04-10T18:09:54.920Z,42.90
2023-04-10T18:12:59.513Z,43.70
2023-04-10T18:16:03.496Z,44.30
2023-04-10T18:19:07.284Z,44.40
2023-04-10T18:22:10.590Z,44.80
2023-04-10T18:25:13.651Z,45.20
2023-04-10T18:28:20.385Z,45.70
2023-04-10T18:31:24.161Z,46.20
2023-04-10T18:34:27.926Z,46.70
2023-04-10T18:37:32.004Z,47.10
2023-04-10T18:40:36.942Z,47.50
2023-04-10T18:43:42.368Z,47.70
2023-04-10T18:46:54.037Z,48.10
2023-04-10T18:50:04.849Z,48.50
2023-04-10T18:53:08.682Z,49.20
2023-04-10T18:56:12.245Z,49.70
2023-04-10T18:59:17.001Z,50.40
2023-04-10T19:02:20.772Z,50.80
2023-04-10T19:05:24.513Z,51.40
2023-04-10T19:08:28.071Z,52.10
2023-04-10T19:11:31.894Z,52.60
2023-04-10T19:14:39.133Z,52.70
2023-04-10T19:17:42.851Z,53.20
2023-04-10T19:20:52.080Z,53.50
2023-04-10T19:23:56.938Z,53.90
2023-04-10T19:27:02.968Z,54.30
2023-04-10T19:30:09.458Z,54.90
2023-04-10T19:33:13.333Z,55.20
2023-04-10T19:36:20.697Z,55.60
2023-04-10T19:39:24.441Z,55.80
2023-04-10T19:42:28.327Z,55.90
2023-04-10T19:45:34.068Z,56.50
2023-04-10T19:48:37.617Z,57.00
2023-04-10T19:51:41.154Z,57.50
2023-04-10T19:54:44.513Z,57.90
2023-04-10T19:57:49.210Z,58.10
2023-04-10T20:00:55.741Z,58.50
2023-04-10T20:03:59.239Z,59.10
2023-04-10T20:07:02.445Z,59.80
2023-04-10T20:10:06.267Z,60.80
2023-04-10T20:13:09.475Z,61.40
2023-04-10T20:16:14.070Z,62.30
2023-04-10T20:19:17.250Z,63.00
2023-04-10T20:22:20.353Z,63.80
2023-04-10T20:25:23.441Z,64.30
2023-04-10T20:28:26.559Z,64.90
2023-04-10T20:31:32.670Z,65.60
2023-04-10T20:34:37.801Z,65.90
2023-04-10T20:37:41.015Z,66.40
2023-04-10T20:40:44.165Z,67.00
2023-04-10T20:43:47.354Z,67.50
2023-04-10T20:46:51.860Z,67.90
2023-04-10T20:49:54.997Z,68.70
2023-04-10T20:52:58.118Z,70.30
2023-04-10T20:56:02.189Z,71.20
2023-04-10T20:59:06.635Z,71.70
2023-04-10T21:02:11.203Z,72.30
2023-04-10T21:05:14.430Z,72.70
2023-04-10T21:08:19.300Z,73.10
2023-04-10T21:11:22.427Z,73.50
2023-04-10T21:14:25.657Z,74.10
2023-04-10T21:17:31.564Z,74.50
2023-04-10T21:20:35.112Z,75.00
2023-04-10T21:23:38.380Z,75.80
2023-04-10T21:26:41.494Z,76.10
2023-04-10T21:29:44.633Z,76.80
2023-04-10T21:32:49.198Z,77.30
2023-04-10T21:35:52.439Z,77.50
2023-04-10T21:38:55.783Z,77.90
2023-04-10T21:41:59.096Z,78.30
2023-04-10T21:45:02.273Z,78.60
2023-04-10T21:48:07.099Z,79.10
2023-04-10T21:51:10.209Z,79.70
2023-04-10T21:54:13.482Z,80.00
2023-04-10T21:57:16.587Z,80.50
2023-04-10T22:00:22.115Z,81.40
2023-04-10T22:03:27.683Z,81.80
2023-04-10T22:06:31.535Z,82.30
2023-04-10T22:09:34.676Z,82.60
2023-04-10T22:12:37.864Z,82.90
2023-04-10T22:15:40.919Z,83.60
2023-04-10T22:18:45.367Z,84.80
2023-04-10T22:21:48.398Z,85.50
2023-04-10T22:24:51.606Z,86.40
2023-04-10T22:27:54.765Z,85.90
2023-04-10T22:30:57.919Z,86.90
2023-04-10T22:34:02.428Z,87.80
2023-04-10T22:37:05.647Z,88.30
2023-04-10T22:40:10.168Z,88.80
2023-04-10T22:43:13.414Z,89.40
2023-04-10T22:46:16.568Z,89.80
2023-04-10T22:49:21.167Z,90.10
2023-04-10T22:52:24.259Z,90.50
2023-04-10T22:55:27.386Z,90.40
2023-04-10T22:58:30.637Z,90.50
2023-04-10T23:01:33.947Z,90.70
2023-04-10T23:04:38.675Z,91.00
2023-04-10T23:07:41.752Z,91.00
2023-04-10T23:10:45.013Z,91.10
2023-04-10T23:13:48.825Z,91.10
2023-04-10T23:16:52.455Z,91.40
2023-04-10T23:19:57.238Z,91.50
2023-04-10T23:23:00.299Z,91.80
2023-04-10T23:26:03.421Z,91.90
2023-04-10T23:29:06.628Z,92.20
2023-04-10T23:32:09.669Z,92.40
2023-04-10T23:35:14.240Z,92.50
2023-04-10T23:38:17.388Z,92.70
2023-04-10T23:41:21.556Z,92.90
2023-04-10T23:44:24.927Z,93.10
2023-04-10T23:47:28.137Z,93.20
2023-04-10T23:50:32.686Z,93.20
2023-04-10T23:53:36.494Z,93.20
2023-04-10T23:56:39.621Z,93.40
2023-04-10T23:59:42.736Z,93.80
